New Providence, New Jersey
Current Conditions -  °F | °C
As of 9:45 AM on Monday 24 Nov 2014 (Local Time) from KMMU Reporting Station
Overcast Overcast  
Wind Chill: 66°   Ceiling: 1200
Heat Index: 66°   Visibility: 15mi
Dew Point: 61°   Wind: 16mph
Humidity: 83%   Direction: 220°SW
Pressure: 29.66"   Gusts: NA
Location:  40.71°N, 74.4°W
Report Text: KMMU 241445Z 22014KT 15SM BKN012 OVC025 19/16 A2966
Loading
Personal Weather Stations






























Interactive Weather Map New forecast layout! Learn more

10-Day Weather Forecast

Advertisements
Track Severe Weather on mobile